Time;durP1;ratioP1;P1;durP2;ratioP2;P2;SDS_P1;SDS_P2;PMS_P1;PMS_P2;Temp;Humidity;BMP_temperature;BMP_pressure;BME280_temperature;BME280_humidity;BME280_pressure;Samples;Min_cycle;Max_cycle;Signal;HPM_P1;HPM_P2
2022/03/13 00:01:02;;;;;;;1.98;1.88;;;18.50;64.80;;;;;;5054736;28;20037;-18
2022/03/13 00:03:28;;;;;;;2.13;1.90;;;18.40;64.70;;;;;;5054408;28;20504;-18
2022/03/13 00:05:54;;;;;;;2.10;1.92;;;18.40;64.70;;;;;;5053740;28;20044;-18
2022/03/13 00:08:32;;;;;;;2.70;2.50;;;18.40;64.80;;;;;;5058196;28;20125;-17
2022/03/13 00:10:59;;;;;;;2.08;1.88;;;18.40;64.80;;;;;;5055749;28;20063;-17
2022/03/13 00:13:30;;;;;;;2.10;1.80;;;18.40;64.80;;;;;;5074350;28;20041;-17
2022/03/13 00:15:57;;;;;;;1.50;1.40;;;18.40;64.70;;;;;;5067026;28;20041;-17
2022/03/13 00:18:23;;;;;;;2.00;1.90;;;18.40;64.80;;;;;;5056468;28;20045;-17
2022/03/13 00:20:48;;;;;;;2.08;1.92;;;18.40;64.80;;;;;;5057348;28;20044;-17
2022/03/13 00:23:15;;;;;;;3.50;1.92;;;18.40;64.90;;;;;;5055951;28;20576;-17
2022/03/13 00:25:41;;;;;;;2.30;1.70;;;18.40;64.80;;;;;;5054815;28;20431;-17
2022/03/13 00:28:07;;;;;;;2.10;1.90;;;18.40;64.80;;;;;;5055072;28;20049;-16
2022/03/13 00:30:34;;;;;;;1.90;1.80;;;18.30;64.80;;;;;;5054467;28;20139;-17
2022/03/13 00:33:00;;;;;;;1.70;1.60;;;18.40;64.80;;;;;;5055124;28;20069;-17
2022/03/13 00:35:27;;;;;;;1.88;1.77;;;18.40;64.90;;;;;;5054482;28;20037;-17
2022/03/13 00:37:53;;;;;;;2.25;2.05;;;18.30;64.80;;;;;;5055023;28;20048;-18
2022/03/13 00:40:20;;;;;;;1.85;1.50;;;18.30;64.80;;;;;;5055080;28;20044;-17
2022/03/13 00:42:46;;;;;;;2.15;1.98;;;18.30;64.70;;;;;;5065116;28;20048;-17
2022/03/13 00:45:13;;;;;;;1.65;1.55;;;18.30;64.70;;;;;;5055023;28;20049;-17
2022/03/13 00:47:38;;;;;;;2.72;1.67;;;18.30;64.70;;;;;;5054186;28;20126;-17
2022/03/13 00:50:04;;;;;;;1.80;1.70;;;18.30;64.70;;;;;;5055025;28;20041;-17
2022/03/13 00:52:30;;;;;;;1.63;1.45;;;18.30;64.70;;;;;;5054487;28;20040;-17
2022/03/13 00:54:56;;;;;;;1.60;1.50;;;18.30;64.70;;;;;;5059549;28;20040;-17
2022/03/13 00:57:21;;;;;;;1.70;1.02;;;18.30;64.80;;;;;;5074913;28;20044;-17
2022/03/13 00:59:47;;;;;;;1.63;1.50;;;18.30;64.70;;;;;;5074054;28;20040;-17
2022/03/13 01:02:13;;;;;;;1.75;1.25;;;18.30;64.60;;;;;;5072572;28;20067;-18
2022/03/13 01:04:39;;;;;;;1.60;1.50;;;18.30;64.60;;;;;;5064071;28;20037;-17
2022/03/13 01:07:05;;;;;;;1.60;1.50;;;18.30;64.60;;;;;;5054713;28;20049;-17
2022/03/13 01:09:30;;;;;;;1.30;1.20;;;18.30;64.50;;;;;;5054080;28;20741;-16
2022/03/13 01:11:56;;;;;;;1.13;1.08;;;18.40;64.50;;;;;;5054865;28;20048;-17
2022/03/13 01:14:22;;;;;;;1.17;1.08;;;18.40;64.40;;;;;;5054466;28;20548;-17
2022/03/13 01:16:47;;;;;;;1.33;1.23;;;18.30;64.40;;;;;;5055248;28;20099;-17
2022/03/13 01:19:13;;;;;;;1.70;1.52;;;18.30;64.40;;;;;;5058071;28;20053;-17
2022/03/13 01:21:41;;;;;;;1.40;1.30;;;18.30;64.30;;;;;;5057086;28;20044;-17
2022/03/13 01:24:13;;;;;;;2.25;1.25;;;18.30;64.30;;;;;;5070483;28;20556;-17
2022/03/13 01:26:39;;;;;;;1.45;1.35;;;18.30;64.40;;;;;;5077568;28;20046;-17
2022/03/13 01:29:06;;;;;;;1.13;1.02;;;18.30;64.30;;;;;;5078304;28;20052;-17
2022/03/13 01:31:35;;;;;;;1.45;1.35;;;18.30;64.30;;;;;;5075984;28;20055;-17
2022/03/13 01:34:00;;;;;;;1.02;1.00;;;18.30;64.40;;;;;;5061915;28;20049;-17
2022/03/13 01:36:26;;;;;;;1.33;1.10;;;18.30;64.20;;;;;;5056000;28;20516;-17
2022/03/13 01:38:55;;;;;;;1.15;1.15;;;18.30;64.30;;;;;;5058157;28;20478;-17
2022/03/13 01:41:21;;;;;;;2.75;1.27;;;18.30;64.20;;;;;;5057945;28;20402;-17
2022/03/13 01:43:48;;;;;;;1.48;1.38;;;18.30;64.40;;;;;;5057269;28;20049;-17
2022/03/13 01:46:13;;;;;;;1.33;1.23;;;18.30;64.30;;;;;;5057662;28;20045;-17
2022/03/13 01:48:53;;;;;;;1.08;1.08;;;18.30;64.40;;;;;;5055525;28;20051;-17
2022/03/13 01:51:19;;;;;;;1.20;1.10;;;18.20;64.70;;;;;;5057648;28;20115;-17
2022/03/13 01:53:44;;;;;;;1.30;1.20;;;18.20;64.40;;;;;;5057209;28;20049;-17
2022/03/13 01:56:10;;;;;;;1.38;1.02;;;18.20;64.50;;;;;;5072624;28;20123;-17
2022/03/13 01:58:36;;;;;;;0.85;0.85;;;18.20;64.40;;;;;;5077012;28;20048;-17
2022/03/13 02:01:01;;;;;;;1.52;1.20;;;18.20;64.30;;;;;;5068443;28;20386;-17
2022/03/13 02:03:27;;;;;;;1.30;1.20;;;18.30;64.30;;;;;;5056809;28;20048;-17
2022/03/13 02:05:53;;;;;;;1.02;1.00;;;18.30;64.00;;;;;;5057609;28;20052;-17
2022/03/13 02:08:20;;;;;;;2.05;1.15;;;18.30;64.10;;;;;;5057350;28;20490;-17
2022/03/13 02:10:46;;;;;;;1.58;1.15;;;18.20;64.20;;;;;;5056980;28;21184;-16
2022/03/13 02:13:13;;;;;;;0.73;0.73;;;18.20;64.10;;;;;;5057170;28;20452;-17
2022/03/13 02:15:39;;;;;;;0.80;0.80;;;18.20;64.30;;;;;;5056694;28;20565;-17
2022/03/13 02:18:05;;;;;;;0.85;0.82;;;18.20;64.30;;;;;;5057008;28;20450;-17
2022/03/13 02:20:35;;;;;;;0.90;0.90;;;18.20;64.20;;;;;;5054830;28;20143;-17
2022/03/13 02:23:01;;;;;;;0.82;0.82;;;18.20;64.30;;;;;;5059457;28;20397;-17
2022/03/13 02:25:31;;;;;;;0.80;0.80;;;18.20;64.20;;;;;;5076349;28;20045;-20
2022/03/13 02:27:58;;;;;;;1.08;1.08;;;18.20;64.20;;;;;;5075932;28;20123;-17
2022/03/13 02:30:24;;;;;;;0.80;0.80;;;18.20;64.20;;;;;;5076949;28;20040;-17
2022/03/13 02:32:51;;;;;;;1.23;1.00;;;18.20;64.10;;;;;;5061862;28;20138;-17
2022/03/13 02:35:17;;;;;;;0.80;0.80;;;18.20;64.00;;;;;;5056940;28;20044;-17
2022/03/13 02:37:42;;;;;;;0.80;0.80;;;18.20;63.90;;;;;;5056146;28;20025;-17
2022/03/13 02:40:22;;;;;;;1.02;0.80;;;18.30;64.00;;;;;;5057006;28;20112;-17
2022/03/13 02:42:48;;;;;;;1.60;0.90;;;18.20;64.00;;;;;;5056399;28;20120;-17
2022/03/13 02:45:31;;;;;;;0.98;0.98;;;18.20;64.10;;;;;;5056602;28;20041;-17
2022/03/13 02:48:00;;;;;;;0.95;0.82;;;18.20;64.10;;;;;;5056062;28;20037;-17
2022/03/13 02:50:26;;;;;;;0.90;0.90;;;18.20;64.10;;;;;;5056912;28;20052;-17
2022/03/13 02:52:52;;;;;;;1.00;1.00;;;18.20;64.10;;;;;;5055761;28;20044;-17
2022/03/13 02:55:17;;;;;;;0.93;0.93;;;18.20;63.90;;;;;;5067557;28;20037;-17
2022/03/13 02:57:43;;;;;;;0.70;0.70;;;18.20;64.10;;;;;;5060168;28;20044;-17
2022/03/13 03:00:09;;;;;;;0.70;0.70;;;18.20;64.00;;;;;;5056303;28;20064;-17
2022/03/13 03:02:35;;;;;;;0.70;0.70;;;18.10;64.00;;;;;;5055583;28;20041;-17
2022/03/13 03:05:06;;;;;;;0.73;0.73;;;18.10;64.10;;;;;;5056230;28;20186;-17
2022/03/13 03:07:31;;;;;;;1.25;0.80;;;18.10;64.00;;;;;;5054294;28;20075;-17
2022/03/13 03:09:57;;;;;;;0.70;0.70;;;18.10;63.90;;;;;;5056494;28;20041;-17
2022/03/13 03:12:23;;;;;;;0.73;0.70;;;18.10;64.00;;;;;;5056419;28;20044;-17
2022/03/13 03:14:48;;;;;;;0.90;0.88;;;18.20;64.00;;;;;;5055428;28;20045;-17
2022/03/13 03:17:14;;;;;;;0.90;0.90;;;18.20;63.90;;;;;;5055955;28;20063;-17
2022/03/13 03:19:39;;;;;;;0.70;0.70;;;18.10;63.80;;;;;;5055546;28;20049;-17
2022/03/13 03:22:05;;;;;;;0.68;0.68;;;18.10;64.10;;;;;;5055894;28;20052;-17
2022/03/13 03:24:31;;;;;;;0.80;0.80;;;18.10;64.00;;;;;;5060715;28;20110;-19
2022/03/13 03:26:58;;;;;;;0.90;0.80;;;18.10;64.00;;;;;;5056025;28;20079;-17
2022/03/13 03:29:24;;;;;;;0.63;0.63;;;18.10;63.90;;;;;;5071064;28;20046;-17
2022/03/13 03:31:50;;;;;;;0.75;0.70;;;18.10;63.80;;;;;;5075109;28;20159;-17
2022/03/13 03:34:20;;;;;;;0.80;0.80;;;18.10;64.10;;;;;;5074891;28;20552;-17
2022/03/13 03:36:48;;;;;;;0.70;0.70;;;18.10;64.00;;;;;;5053559;28;20045;-17
2022/03/13 03:39:14;;;;;;;0.82;0.70;;;18.10;63.90;;;;;;5055240;28;20066;-17
2022/03/13 03:41:41;;;;;;;1.08;0.88;;;18.10;64.90;;;;;;5055035;28;20040;-17
2022/03/13 03:44:07;;;;;;;0.60;0.60;;;18.10;63.90;;;;;;5060154;28;20032;-17
2022/03/13 03:46:32;;;;;;;0.70;0.70;;;18.10;63.90;;;;;;5055734;28;20055;-17
2022/03/13 03:48:58;;;;;;;1.38;0.70;;;18.10;64.00;;;;;;5055111;28;20406;-17
2022/03/13 03:51:24;;;;;;;0.40;0.40;;;18.10;63.90;;;;;;5055532;28;20468;-17
2022/03/13 03:53:49;;;;;;;0.40;0.40;;;18.10;63.90;;;;;;5054880;28;20037;-17
2022/03/13 03:56:15;;;;;;;0.60;0.60;;;18.10;64.10;;;;;;5071209;28;20045;-17
2022/03/13 03:58:40;;;;;;;0.70;0.60;;;18.10;63.90;;;;;;5070543;28;20029;-17
2022/03/13 04:01:06;;;;;;;0.50;0.50;;;18.10;63.90;;;;;;5072232;28;20125;-17
2022/03/13 04:03:32;;;;;;;0.70;0.60;;;18.10;64.00;;;;;;5065138;28;20421;-17
2022/03/13 04:05:57;;;;;;;1.10;0.93;;;18.10;64.00;;;;;;5054671;28;20045;-17
2022/03/13 04:08:23;;;;;;;0.60;0.52;;;18.10;64.00;;;;;;5055490;28;20051;-17
2022/03/13 04:10:49;;;;;;;0.50;0.50;;;18.10;64.00;;;;;;5054935;28;20959;-17
2022/03/13 04:13:14;;;;;;;0.60;0.60;;;18.10;64.10;;;;;;5055289;28;20147;-17
2022/03/13 04:15:40;;;;;;;0.70;0.70;;;18.00;64.20;;;;;;5066570;28;20040;-17
2022/03/13 04:18:05;;;;;;;0.50;0.50;;;18.00;64.10;;;;;;5073675;28;20051;-17
2022/03/13 04:20:31;;;;;;;0.63;0.50;;;18.00;64.00;;;;;;5056379;28;20072;-17
2022/03/13 04:22:57;;;;;;;0.50;0.50;;;18.00;64.10;;;;;;5057281;28;20047;-17
2022/03/13 04:25:22;;;;;;;0.90;0.90;;;18.00;64.20;;;;;;5066841;28;20052;-17
2022/03/13 04:27:48;;;;;;;0.65;0.65;;;18.00;64.10;;;;;;5054569;28;20079;-17
2022/03/13 04:30:14;;;;;;;0.60;0.60;;;18.00;64.10;;;;;;5055220;28;20045;-17
2022/03/13 04:32:41;;;;;;;0.77;0.77;;;18.00;64.20;;;;;;5062552;28;20486;-17
2022/03/13 04:35:07;;;;;;;0.77;0.70;;;18.00;64.30;;;;;;5055004;28;20133;-17
2022/03/13 04:37:33;;;;;;;0.65;0.60;;;18.00;64.20;;;;;;5054989;28;20036;-17
2022/03/13 04:39:58;;;;;;;0.70;0.70;;;18.00;64.20;;;;;;5054287;28;20045;-17
2022/03/13 04:42:24;;;;;;;0.75;0.50;;;18.00;64.20;;;;;;5055373;28;20044;-17
2022/03/13 04:44:50;;;;;;;0.60;0.60;;;18.00;64.20;;;;;;5054208;28;20041;-17
2022/03/13 04:47:15;;;;;;;0.52;0.50;;;17.90;64.20;;;;;;5054667;28;20044;-17
2022/03/13 04:49:41;;;;;;;1.05;0.65;;;18.00;64.30;;;;;;5073843;28;20472;-17
2022/03/13 04:52:07;;;;;;;0.70;0.70;;;18.00;64.10;;;;;;5070546;28;20075;-17
2022/03/13 04:54:32;;;;;;;0.43;0.43;;;18.00;64.10;;;;;;5060293;28;20056;-17
2022/03/13 04:56:58;;;;;;;0.47;0.40;;;18.00;64.10;;;;;;5078240;28;20041;-17
2022/03/13 04:59:24;;;;;;;0.50;0.50;;;18.00;64.20;;;;;;5065751;28;20529;-17
2022/03/13 05:01:52;;;;;;;0.63;0.63;;;17.90;64.20;;;;;;5057924;28;20043;-17
2022/03/13 05:04:17;;;;;;;0.60;0.60;;;17.90;64.20;;;;;;5058518;28;20041;-17
2022/03/13 05:06:45;;;;;;;0.55;0.55;;;18.00;64.20;;;;;;5073892;28;20040;-17
2022/03/13 05:09:10;;;;;;;0.80;0.50;;;18.00;64.30;;;;;;5067189;28;20053;-17
2022/03/13 05:11:36;;;;;;;0.65;0.50;;;18.00;65.10;;;;;;5058309;28;20041;-17
2022/03/13 05:14:01;;;;;;;0.38;0.38;;;18.00;64.20;;;;;;5058109;28;20052;-17
2022/03/13 05:16:27;;;;;;;0.47;0.47;;;18.00;64.20;;;;;;5058204;28;20087;-17
2022/03/13 05:18:53;;;;;;;0.47;0.47;;;17.90;64.90;;;;;;5057609;28;20067;-17
2022/03/13 05:21:18;;;;;;;0.75;0.68;;;18.00;64.30;;;;;;5058007;28;20041;-17
2022/03/13 05:23:44;;;;;;;0.50;0.50;;;17.90;64.20;;;;;;5057729;28;20076;-17
2022/03/13 05:26:10;;;;;;;2.00;0.50;;;17.90;64.20;;;;;;5058097;28;20041;-17
2022/03/13 05:28:36;;;;;;;0.50;0.50;;;18.00;64.30;;;;;;5058166;28;20044;-17
2022/03/13 05:31:02;;;;;;;0.50;0.50;;;17.90;65.00;;;;;;5057385;28;20045;-17
2022/03/13 05:33:27;;;;;;;0.40;0.35;;;17.90;64.20;;;;;;5058123;28;20037;-17
2022/03/13 05:35:53;;;;;;;0.43;0.38;;;17.90;64.20;;;;;;5057302;28;20148;-17
2022/03/13 05:38:19;;;;;;;0.70;0.40;;;17.90;64.20;;;;;;5057643;28;20037;-17
2022/03/13 05:40:44;;;;;;;0.60;0.60;;;18.00;64.20;;;;;;5069140;28;20412;-17
2022/03/13 05:43:11;;;;;;;0.50;0.40;;;18.00;64.30;;;;;;5077853;28;20295;-17
2022/03/13 05:45:39;;;;;;;0.65;0.57;;;17.90;64.20;;;;;;5077946;28;20041;-17
2022/03/13 05:48:13;;;;;;;0.35;0.30;;;18.00;64.20;;;;;;5068790;28;20125;-17
2022/03/13 05:50:39;;;;;;;0.50;0.50;;;17.90;64.20;;;;;;5057819;28;20040;-17
2022/03/13 05:53:05;;;;;;;0.40;0.40;;;17.90;64.20;;;;;;5057166;28;20049;-17
2022/03/13 05:55:30;;;;;;;0.45;0.38;;;17.90;64.20;;;;;;5066769;28;20132;-17
2022/03/13 05:57:57;;;;;;;0.30;0.30;;;17.90;64.20;;;;;;5063120;28;20047;-17
2022/03/13 06:00:25;;;;;;;0.65;0.60;;;17.90;64.20;;;;;;5077637;28;20047;-17
2022/03/13 06:02:51;;;;;;;0.40;0.40;;;17.90;64.20;;;;;;5076407;28;20182;-17
2022/03/13 06:05:17;;;;;;;0.50;0.50;;;17.90;64.20;;;;;;5068661;28;20076;-17
2022/03/13 06:07:43;;;;;;;0.45;0.45;;;17.90;64.20;;;;;;5056751;28;20048;-18
2022/03/13 06:10:09;;;;;;;0.50;0.50;;;17.90;64.30;;;;;;5057130;28;20049;-17
2022/03/13 06:12:35;;;;;;;0.50;0.40;;;17.90;65.10;;;;;;5057446;28;20142;-17
2022/03/13 06:15:01;;;;;;;0.60;0.50;;;17.90;64.20;;;;;;5060684;28;21380;-17
2022/03/13 06:17:26;;;;;;;2.00;0.50;;;17.90;64.20;;;;;;5064818;28;20043;-17
2022/03/13 06:19:53;;;;;;;0.50;0.35;;;17.90;64.20;;;;;;5064304;28;20086;-17
2022/03/13 06:22:19;;;;;;;0.50;0.50;;;17.90;64.20;;;;;;5066558;28;20041;-17
2022/03/13 06:24:45;;;;;;;0.47;0.47;;;17.90;64.40;;;;;;5060469;28;20124;-18
2022/03/13 06:27:10;;;;;;;0.57;0.50;;;17.90;64.30;;;;;;5070164;28;20064;-17
2022/03/13 06:29:39;;;;;;;0.52;0.52;;;17.90;64.30;;;;;;5067886;28;20151;-17
2022/03/13 06:32:05;;;;;;;2.10;0.50;;;17.90;64.40;;;;;;5065664;28;20082;-17
2022/03/13 06:34:31;;;;;;;0.52;0.40;;;17.90;64.30;;;;;;5065655;28;20052;-17
2022/03/13 06:36:56;;;;;;;0.40;0.40;;;17.90;64.40;;;;;;5064713;28;20045;-17
2022/03/13 06:39:22;;;;;;;0.60;0.43;;;17.90;64.30;;;;;;5066986;28;20124;-17
2022/03/13 06:41:49;;;;;;;0.40;0.40;;;17.90;64.30;;;;;;5065028;28;20037;-17
2022/03/13 06:44:14;;;;;;;0.40;0.40;;;17.90;64.40;;;;;;5067166;28;20040;-17
2022/03/13 06:46:40;;;;;;;0.50;0.50;;;17.90;64.50;;;;;;5065066;28;20043;-17
2022/03/13 06:49:05;;;;;;;0.85;0.40;;;17.80;64.40;;;;;;5063617;28;20511;-17
2022/03/13 06:51:34;;;;;;;0.40;0.40;;;17.80;64.40;;;;;;5056521;28;20045;-17
2022/03/13 06:54:00;;;;;;;0.43;0.32;;;17.80;64.40;;;;;;5055816;28;20037;-17
2022/03/13 06:56:25;;;;;;;0.40;0.30;;;17.80;64.40;;;;;;5066233;28;20082;-17
2022/03/13 06:58:52;;;;;;;1.85;0.32;;;17.90;64.40;;;;;;5055867;28;20048;-17
2022/03/13 07:01:18;;;;;;;0.40;0.40;;;17.80;64.40;;;;;;5056091;28;20037;-17
2022/03/13 07:03:43;;;;;;;0.40;0.40;;;17.80;64.30;;;;;;5056428;28;20569;-17
2022/03/13 07:06:09;;;;;;;0.38;0.38;;;17.90;64.40;;;;;;5061969;28;20055;-17
2022/03/13 07:08:34;;;;;;;0.47;0.47;;;17.80;64.40;;;;;;5060247;28;20053;-17
2022/03/13 07:11:01;;;;;;;0.25;0.25;;;17.80;64.30;;;;;;5055577;28;20128;-17
2022/03/13 07:13:33;;;;;;;0.50;0.22;;;17.80;64.40;;;;;;5055863;28;20053;-17
2022/03/13 07:16:00;;;;;;;0.63;0.30;;;17.80;64.40;;;;;;5055050;28;20041;-17
2022/03/13 07:18:26;;;;;;;0.40;0.40;;;17.80;64.40;;;;;;5056184;28;20044;-17
2022/03/13 07:20:52;;;;;;;0.40;0.40;;;17.80;64.50;;;;;;5055290;28;20079;-17
2022/03/13 07:23:18;;;;;;;0.30;0.30;;;17.80;64.40;;;;;;5063600;28;20048;-17
2022/03/13 07:25:43;;;;;;;0.30;0.30;;;17.80;64.40;;;;;;5075615;28;20036;-17
2022/03/13 07:28:09;;;;;;;0.77;0.40;;;17.80;64.40;;;;;;5075424;28;20128;-17
2022/03/13 07:30:35;;;;;;;0.50;0.40;;;17.80;64.30;;;;;;5075841;28;20044;-17
2022/03/13 07:33:00;;;;;;;0.35;0.35;;;17.80;64.30;;;;;;5058376;28;20045;-17
2022/03/13 07:35:27;;;;;;;0.28;0.22;;;17.80;64.70;;;;;;4712298;28;9999739;-17
2022/03/13 07:37:52;;;;;;;0.90;0.50;;;17.80;64.70;;;;;;5074653;28;20044;-17
2022/03/13 07:40:18;;;;;;;0.63;0.40;;;17.80;64.80;;;;;;5067403;28;20045;-17
2022/03/13 07:42:44;;;;;;;3.40;0.30;;;17.90;64.90;;;;;;5070231;28;20127;-17
2022/03/13 07:45:10;;;;;;;0.82;0.45;;;17.90;65.70;;;;;;5071915;28;20037;-17
2022/03/13 07:47:35;;;;;;;0.43;0.38;;;17.90;64.70;;;;;;5068798;28;20102;-17
2022/03/13 07:50:01;;;;;;;2.33;1.00;;;17.90;65.10;;;;;;5071022;28;20041;-17
2022/03/13 07:52:27;;;;;;;1.30;0.40;;;17.80;64.90;;;;;;5066067;28;20088;-17
2022/03/13 07:54:52;;;;;;;0.57;0.40;;;17.80;65.10;;;;;;5066819;28;20053;-17
2022/03/13 07:57:18;;;;;;;1.60;0.47;;;17.80;65.30;;;;;;5071918;28;20070;-17
2022/03/13 07:59:46;;;;;;;0.60;0.60;;;17.80;65.40;;;;;;5071414;28;20048;-17
2022/03/13 08:02:12;;;;;;;1.17;0.47;;;17.80;65.40;;;;;;5069793;28;20523;-17
2022/03/13 08:04:38;;;;;;;1.90;0.60;;;17.80;65.50;;;;;;5071703;28;20413;-17
2022/03/13 08:07:03;;;;;;;0.40;0.40;;;17.80;65.50;;;;;;5065760;28;20049;-17
2022/03/13 08:09:29;;;;;;;0.38;0.30;;;17.80;65.50;;;;;;5065582;28;20828;-17
2022/03/13 08:11:55;;;;;;;0.85;0.50;;;17.80;65.60;;;;;;5068929;28;20106;-17
2022/03/13 08:14:20;;;;;;;1.08;0.60;;;17.80;65.50;;;;;;5062277;28;20136;-17
2022/03/13 08:16:46;;;;;;;1.90;0.40;;;17.80;65.50;;;;;;5070839;28;20048;-17
2022/03/13 08:19:11;;;;;;;0.60;0.60;;;17.80;65.50;;;;;;5061628;28;20068;-17
2022/03/13 08:21:38;;;;;;;0.82;0.38;;;17.90;65.50;;;;;;5070971;28;20043;-17
2022/03/13 08:24:07;;;;;;;0.50;0.50;;;17.80;65.50;;;;;;5064314;28;20124;-17
2022/03/13 08:26:38;;;;;;;0.55;0.50;;;17.80;65.60;;;;;;5067367;28;20044;-17
2022/03/13 08:29:05;;;;;;;1.50;0.50;;;17.80;65.60;;;;;;5067699;28;20055;-17
2022/03/13 08:31:32;;;;;;;0.57;0.52;;;17.80;65.60;;;;;;5062849;28;20045;-17
2022/03/13 08:33:58;;;;;;;0.60;0.47;;;17.90;65.70;;;;;;5065885;28;20036;-17
2022/03/13 08:36:24;;;;;;;0.40;0.25;;;17.80;66.30;;;;;;5069181;28;20039;-17
2022/03/13 08:38:49;;;;;;;0.40;0.38;;;17.90;65.40;;;;;;5075038;28;20044;-17
2022/03/13 08:41:15;;;;;;;0.63;0.50;;;17.90;65.50;;;;;;5073915;28;20486;-17
2022/03/13 08:43:40;;;;;;;1.23;0.70;;;17.90;65.50;;;;;;5073077;28;20056;-17
2022/03/13 08:46:06;;;;;;;1.75;0.40;;;17.90;65.70;;;;;;5069554;28;20416;-17
2022/03/13 08:48:32;;;;;;;0.50;0.50;;;17.90;65.70;;;;;;5075055;28;20151;-18
2022/03/13 08:50:57;;;;;;;1.85;0.77;;;18.00;65.80;;;;;;5074015;28;20505;-18
2022/03/13 08:53:23;;;;;;;2.20;0.60;;;17.90;65.70;;;;;;5073022;28;20051;-17
2022/03/13 08:55:49;;;;;;;2.20;0.60;;;17.90;65.80;;;;;;5073280;28;20525;-17
2022/03/13 08:58:15;;;;;;;3.85;0.52;;;17.90;65.70;;;;;;5074067;28;20114;-17
2022/03/13 09:00:43;;;;;;;2.50;0.80;;;17.90;65.80;;;;;;5065810;28;20497;-17
2022/03/13 09:03:09;;;;;;;2.65;0.60;;;17.90;65.70;;;;;;5055190;28;20037;-18
2022/03/13 09:05:35;;;;;;;2.53;0.50;;;17.90;65.70;;;;;;5075258;28;20044;-17
2022/03/13 09:08:01;;;;;;;2.08;0.55;;;17.90;65.70;;;;;;5061248;28;20059;-17
2022/03/13 09:10:27;;;;;;;1.10;0.60;;;17.90;65.70;;;;;;5056844;28;20563;-17
2022/03/13 09:12:53;;;;;;;2.78;0.57;;;17.90;65.70;;;;;;5066477;28;20379;-17
2022/03/13 09:15:18;;;;;;;4.30;0.70;;;17.90;65.70;;;;;;5064995;28;20076;-17
2022/03/13 09:17:44;;;;;;;0.52;0.38;;;17.90;65.70;;;;;;5063195;28;20098;-17
2022/03/13 09:20:11;;;;;;;2.45;0.43;;;18.00;65.70;;;;;;5065876;28;20716;-17
2022/03/13 09:22:36;;;;;;;4.47;0.68;;;17.90;65.70;;;;;;5063354;28;20483;-17
2022/03/13 09:25:02;;;;;;;2.30;0.70;;;17.90;65.80;;;;;;5064810;28;20469;-17
2022/03/13 09:27:29;;;;;;;1.85;0.60;;;17.90;65.90;;;;;;5062215;28;20079;-17
2022/03/13 09:29:56;;;;;;;3.00;0.47;;;17.90;65.80;;;;;;5063569;28;20064;-17
2022/03/13 09:32:26;;;;;;;1.73;0.60;;;18.00;65.90;;;;;;5063615;28;20060;-17
2022/03/13 09:34:51;;;;;;;2.70;0.80;;;17.90;65.90;;;;;;5064247;28;20040;-17
2022/03/13 09:37:17;;;;;;;3.28;1.02;;;17.90;65.90;;;;;;5065157;28;20578;-17
2022/03/13 09:39:43;;;;;;;1.23;0.60;;;17.90;65.80;;;;;;5063546;28;20046;-17
2022/03/13 09:42:09;;;;;;;1.98;0.60;;;17.90;65.80;;;;;;5062529;28;20098;-16
2022/03/13 09:44:35;;;;;;;2.65;0.70;;;18.00;65.80;;;;;;5062158;28;20056;-17
2022/03/13 09:47:00;;;;;;;2.10;0.65;;;18.00;65.80;;;;;;5059838;28;20044;-17
2022/03/13 09:49:27;;;;;;;2.53;0.55;;;17.90;65.70;;;;;;5060724;28;20154;-17
2022/03/13 09:51:53;;;;;;;2.38;0.65;;;18.00;65.70;;;;;;5064617;28;20037;-17
2022/03/13 09:54:19;;;;;;;1.30;0.70;;;18.00;65.70;;;;;;5063218;28;20041;-17
2022/03/13 09:56:45;;;;;;;0.73;0.45;;;18.00;65.70;;;;;;5060592;28;20521;-17
2022/03/13 09:59:10;;;;;;;1.35;0.50;;;18.00;65.70;;;;;;5056880;28;20037;-17
2022/03/13 10:01:36;;;;;;;2.45;0.75;;;18.00;65.80;;;;;;5060282;28;20045;-16
2022/03/13 10:04:04;;;;;;;2.30;0.60;;;18.00;65.50;;;;;;5057384;28;20052;-17
2022/03/13 10:06:29;;;;;;;1.60;0.52;;;18.00;65.50;;;;;;5058582;28;20113;-16
2022/03/13 10:08:55;;;;;;;1.67;0.50;;;18.00;65.50;;;;;;5060505;28;20790;-17
2022/03/13 10:11:33;;;;;;;0.40;0.40;;;18.00;65.50;;;;;;5061775;28;20045;-16
2022/03/13 10:14:06;;;;;;;2.03;0.55;;;18.00;65.50;;;;;;5056504;28;20132;-16
2022/03/13 10:16:36;;;;;;;5.70;0.75;;;18.10;65.50;;;;;;5066620;28;20412;-16
2022/03/13 10:19:15;;;;;;;2.85;0.75;;;18.10;67.10;;;;;;5070682;28;20033;-17
2022/03/13 10:22:00;;;;;;;3.95;0.80;;;18.10;67.10;;;;;;5068567;28;20052;-17
2022/03/13 10:24:26;;;;;;;;;;;18.10;66.50;;;;;;5069974;28;20146;-16
2022/03/13 10:27:12;;;;;;;2.03;0.65;;;18.00;66.50;;;;;;5072922;28;20048;-16
2022/03/13 10:29:37;;;;;;;4.45;1.23;;;18.10;66.80;;;;;;5072078;28;20047;-16
2022/03/13 10:32:05;;;;;;;1.40;0.80;;;18.10;66.60;;;;;;5068182;28;20037;-17
2022/03/13 10:34:31;;;;;;;1.10;0.55;;;18.10;66.90;;;;;;5062322;28;20063;-17
2022/03/13 10:36:57;;;;;;;1.02;0.70;;;18.10;66.50;;;;;;5070555;28;20048;-17
2022/03/13 10:39:23;;;;;;;2.75;1.17;;;18.10;66.50;;;;;;5062178;28;20041;-17
2022/03/13 10:41:53;;;;;;;5.80;0.90;;;18.10;66.90;;;;;;5066156;28;20044;-17
2022/03/13 10:44:22;;;;;;;1.92;0.90;;;18.10;66.50;;;;;;5070736;28;20080;-17
2022/03/13 10:46:57;;;;;;;1.08;0.77;;;18.10;66.50;;;;;;5071192;28;20055;-17
2022/03/13 10:49:41;;;;;;;3.08;0.77;;;18.20;66.30;;;;;;5052738;28;20055;-17
2022/03/13 10:52:35;;;;;;;3.67;0.60;;;18.20;66.40;;;;;;5064267;28;20127;-17
2022/03/13 10:55:24;;;;;;;1.65;0.50;;;18.20;66.30;;;;;;5070791;28;20509;-17
2022/03/13 10:57:57;;;;;;;2.10;0.85;;;18.20;66.20;;;;;;5071223;28;20048;-16
2022/03/13 11:00:23;;;;;;;2.03;0.63;;;18.20;67.00;;;;;;5057555;28;20048;-17
2022/03/13 11:02:49;;;;;;;0.80;0.60;;;18.20;66.30;;;;;;5071982;28;20083;-17
2022/03/13 11:05:15;;;;;;;1.08;0.65;;;18.20;66.40;;;;;;5070442;28;20139;-17
2022/03/13 11:07:41;;;;;;;1.85;0.77;;;18.20;66.40;;;;;;5068000;28;20318;-17
2022/03/13 11:10:07;;;;;;;1.77;0.60;;;18.20;66.50;;;;;;5069945;28;20059;-17
2022/03/13 11:12:34;;;;;;;2.78;0.60;;;18.30;65.80;;;;;;5068894;28;20073;-17
2022/03/13 11:15:01;;;;;;;2.40;0.60;;;18.40;65.70;;;;;;5060198;28;20048;-19
2022/03/13 11:17:33;;;;;;;1.35;0.80;;;18.50;65.60;;;;;;5069347;28;20585;-17
2022/03/13 11:20:09;;;;;;;1.83;1.02;;;18.50;65.20;;;;;;5016530;27;20469;-15
2022/03/13 11:22:35;;;;;;;1.35;0.43;;;18.60;65.20;;;;;;5026211;28;20050;-15
2022/03/13 11:25:03;;;;;;;1.88;0.50;;;18.60;65.00;;;;;;5008211;28;20068;-16
2022/03/13 11:27:33;;;;;;;2.10;0.57;;;18.70;65.00;;;;;;5025815;28;20037;-14
2022/03/13 11:29:59;;;;;;;1.70;0.60;;;18.60;65.00;;;;;;5010247;28;20838;-13
2022/03/13 11:32:37;;;;;;;1.02;0.70;;;18.60;64.80;;;;;;5004410;28;20678;-14
2022/03/13 11:35:18;;;;;;;2.03;0.60;;;18.60;64.50;;;;;;5006447;28;20046;-12
2022/03/13 11:37:54;;;;;;;1.95;0.80;;;18.70;64.50;;;;;;5004251;28;20041;-13
2022/03/13 11:40:28;;;;;;;1.75;0.70;;;18.70;64.60;;;;;;5015705;28;20046;-13
2022/03/13 11:43:06;;;;;;;3.97;0.90;;;18.70;64.30;;;;;;5009989;28;20118;-13
2022/03/13 11:45:34;;;;;;;1.70;1.02;;;18.60;64.80;;;;;;5016245;28;20045;-14
2022/03/13 11:48:13;;;;;;;0.98;0.52;;;18.50;64.80;;;;;;5009803;28;20050;-14
2022/03/13 11:50:51;;;;;;;1.00;0.50;;;18.50;65.90;;;;;;5014349;28;20081;-12
2022/03/13 11:53:21;;;;;;;1.83;0.40;;;18.60;66.70;;;;;;4997656;28;20143;-13
2022/03/13 11:56:10;;;;;;;2.13;1.00;;;18.60;66.50;;;;;;5023375;28;20053;-13
2022/03/13 11:58:52;;;;;;;3.78;1.15;;;18.70;67.40;;;;;;5011087;28;20054;-12
2022/03/13 12:01:20;;;;;;;3.90;1.15;;;18.80;67.80;;;;;;4998899;28;20142;-15
2022/03/13 12:04:04;;;;;;;3.42;1.45;;;18.80;67.50;;;;;;5002984;28;20066;-17
2022/03/13 12:06:56;;;;;;;2.47;1.10;;;18.70;67.40;;;;;;5004651;28;20061;-17
2022/03/13 12:09:31;;;;;;;3.47;1.20;;;18.70;67.40;;;;;;5004258;28;20500;-17
2022/03/13 12:12:01;;;;;;;2.10;1.13;;;18.70;67.40;;;;;;5003642;28;20058;-17
2022/03/13 12:14:54;;;;;;;5.40;1.40;;;18.70;67.40;;;;;;5002663;28;20080;-14
2022/03/13 12:17:20;;;;;;;1.33;1.13;;;18.80;67.20;;;;;;5006234;28;20046;-13
2022/03/13 12:19:47;;;;;;;1.50;1.00;;;18.80;67.10;;;;;;5000480;28;20120;-14
2022/03/13 12:22:13;;;;;;;2.45;1.10;;;18.80;67.10;;;;;;5016704;28;20658;-13
2022/03/13 12:24:39;;;;;;;4.20;1.25;;;18.80;67.10;;;;;;5007191;28;20054;-13
2022/03/13 12:27:05;;;;;;;2.20;1.25;;;18.80;67.10;;;;;;5026350;28;20056;-13
2022/03/13 12:29:32;;;;;;;1.60;1.05;;;18.80;67.10;;;;;;5012567;28;20058;-13
2022/03/13 12:31:59;;;;;;;2.75;1.00;;;18.70;67.10;;;;;;4991425;28;20120;-13
2022/03/13 12:34:28;;;;;;;1.75;1.02;;;18.80;67.10;;;;;;4997020;28;20707;-13
2022/03/13 12:36:57;;;;;;;2.60;0.90;;;18.80;67.00;;;;;;5002833;28;20153;-13
2022/03/13 12:39:22;;;;;;;2.92;0.85;;;18.80;66.90;;;;;;4996590;28;20132;-14
2022/03/13 12:41:59;;;;;;;2.58;0.98;;;18.80;66.80;;;;;;5002769;28;20138;-19
2022/03/13 12:44:25;;;;;;;1.65;0.85;;;18.80;66.70;;;;;;5012810;28;21140;-15
2022/03/13 12:46:51;;;;;;;1.13;0.80;;;18.80;66.70;;;;;;5002517;28;20050;-16
2022/03/13 12:49:19;;;;;;;1.13;0.90;;;18.80;66.60;;;;;;5001556;28;20287;-16